createdAt,value
2023-03-22T00:00:18.163Z,30.185
2023-03-22T00:05:18.398Z,30.188
2023-03-22T00:10:16.219Z,30.188
2023-03-22T00:15:16.389Z,30.189
2023-03-22T00:20:16.236Z,30.192
2023-03-22T00:25:16.321Z,30.192
2023-03-22T00:30:16.513Z,30.193
2023-03-22T00:35:16.384Z,30.196
2023-03-22T00:40:18.275Z,30.200
2023-03-22T00:45:16.665Z,30.203
2023-03-22T00:50:16.325Z,30.203
2023-03-22T00:55:16.386Z,30.204
2023-03-22T01:00:17.153Z,30.204
2023-03-22T01:05:16.406Z,30.208
2023-03-22T01:10:16.460Z,30.209
2023-03-22T01:15:16.787Z,30.211
2023-03-22T01:20:16.494Z,30.212
2023-03-22T01:25:16.477Z,30.213
2023-03-22T01:30:16.571Z,30.214
2023-03-22T01:35:16.705Z,30.217
2023-03-22T01:40:16.544Z,30.214
2023-03-22T01:45:16.601Z,30.216
2023-03-22T01:50:16.448Z,30.217
2023-03-22T01:55:16.496Z,30.219
2023-03-22T02:00:16.725Z,30.221
2023-03-22T02:05:16.976Z,30.221
2023-03-22T02:10:16.796Z,30.223
2023-03-22T02:15:16.662Z,30.224
2023-03-22T02:20:16.600Z,30.224
2023-03-22T02:25:16.593Z,30.224
2023-03-22T02:30:16.574Z,30.224
2023-03-22T02:35:16.734Z,30.225
2023-03-22T02:40:16.669Z,30.225
2023-03-22T02:45:16.678Z,30.227
2023-03-22T02:50:16.631Z,30.227
2023-03-22T02:55:16.699Z,30.228
2023-03-22T03:00:16.779Z,30.228
2023-03-22T03:05:16.765Z,30.229
2023-03-22T03:10:16.644Z,30.232
2023-03-22T03:15:17.143Z,30.231
2023-03-22T03:20:16.996Z,30.232
2023-03-22T03:25:16.689Z,30.234
2023-03-22T03:30:16.815Z,30.236
2023-03-22T03:35:16.818Z,30.237
2023-03-22T03:40:16.761Z,30.238
2023-03-22T03:45:16.941Z,30.237
2023-03-22T03:50:16.995Z,30.236
2023-03-22T03:55:16.814Z,30.238
2023-03-22T04:00:17.964Z,30.238
2023-03-22T04:05:17.886Z,30.238
2023-03-22T04:10:18.271Z,30.239
2023-03-22T04:15:18.191Z,30.237
2023-03-22T04:20:18.620Z,30.240
2023-03-22T04:25:18.298Z,30.238
2023-03-22T04:30:18.379Z,30.239
2023-03-22T04:35:18.036Z,30.240
2023-03-22T04:40:17.993Z,30.239
2023-03-22T04:45:18.285Z,30.241
2023-03-22T04:50:18.000Z,30.243
2023-03-22T04:55:18.300Z,30.246
2023-03-22T05:00:18.011Z,30.252
2023-03-22T05:05:18.017Z,30.254
2023-03-22T05:10:18.161Z,30.257
2023-03-22T05:15:18.123Z,30.260
2023-03-22T05:20:18.045Z,30.262
2023-03-22T05:25:18.096Z,30.263
2023-03-22T05:30:18.748Z,30.265
2023-03-22T05:35:18.181Z,30.264
2023-03-22T05:40:18.120Z,30.261
2023-03-22T05:45:18.422Z,30.259
2023-03-22T05:50:18.046Z,30.261
2023-03-22T05:55:18.149Z,30.263
2023-03-22T06:00:18.124Z,30.264
2023-03-22T06:05:18.578Z,30.265
2023-03-22T06:10:18.164Z,30.265
2023-03-22T06:15:18.327Z,30.268
2023-03-22T06:20:18.203Z,30.267
2023-03-22T06:25:18.648Z,30.266
2023-03-22T06:30:16.330Z,30.266
2023-03-22T06:35:16.267Z,30.267
2023-03-22T06:40:16.615Z,30.270
2023-03-22T06:45:16.489Z,30.274
2023-03-22T06:50:16.357Z,30.277
2023-03-22T06:55:16.213Z,30.279
2023-03-22T07:00:16.860Z,30.280
2023-03-22T07:05:16.366Z,30.280
2023-03-22T07:10:16.306Z,30.284
2023-03-22T07:15:17.697Z,30.283
2023-03-22T07:20:16.380Z,30.285
2023-03-22T07:25:16.659Z,30.288
2023-03-22T07:30:16.686Z,30.287
2023-03-22T07:35:16.640Z,30.288
2023-03-22T07:40:17.928Z,30.289
2023-03-22T07:45:16.696Z,30.289
2023-03-22T07:50:16.840Z,30.290
2023-03-22T07:55:16.504Z,30.291
2023-03-22T08:00:16.597Z,30.292
2023-03-22T08:05:16.549Z,30.290
2023-03-22T08:10:16.532Z,30.291
2023-03-22T08:15:17.100Z,30.291
2023-03-22T08:20:16.529Z,30.293
2023-03-22T08:25:16.783Z,30.294
2023-03-22T08:30:16.722Z,30.295
2023-03-22T08:35:16.862Z,30.298
2023-03-22T08:40:16.628Z,30.300
2023-03-22T08:45:16.690Z,30.302
2023-03-22T08:50:16.666Z,30.301
2023-03-22T08:55:16.745Z,30.302
2023-03-22T09:00:17.028Z,30.305
2023-03-22T09:05:16.641Z,30.305
2023-03-22T09:10:16.615Z,30.305
2023-03-22T09:15:16.927Z,30.306
2023-03-22T09:20:16.769Z,30.311
2023-03-22T09:25:16.678Z,30.310
2023-03-22T09:30:16.865Z,30.311
2023-03-22T09:35:16.928Z,30.315
2023-03-22T09:40:16.918Z,30.318
2023-03-22T09:45:16.966Z,30.318
2023-03-22T09:50:16.805Z,30.317
2023-03-22T09:55:16.752Z,30.318
2023-03-22T10:00:16.954Z,30.318
2023-03-22T10:05:16.819Z,30.319
2023-03-22T10:10:17.061Z,30.322
2023-03-22T10:15:16.923Z,30.322
2023-03-22T10:20:16.880Z,30.325
2023-03-22T10:25:16.901Z,30.326
2023-03-22T10:30:17.146Z,30.328
2023-03-22T10:35:16.975Z,30.328
2023-03-22T10:40:16.855Z,30.331
2023-03-22T10:45:17.596Z,30.333
2023-03-22T10:50:16.908Z,30.334
2023-03-22T10:55:16.959Z,30.338
2023-03-22T11:00:17.110Z,30.339
2023-03-22T11:05:16.969Z,30.340
2023-03-22T11:10:17.066Z,30.340
2023-03-22T11:15:17.332Z,30.343
2023-03-22T11:20:17.385Z,30.343
2023-03-22T11:25:17.064Z,30.343
2023-03-22T11:30:17.299Z,30.345
2023-03-22T11:35:17.007Z,30.346
2023-03-22T11:40:17.081Z,30.346
2023-03-22T11:45:17.246Z,30.347
2023-03-22T11:50:17.315Z,30.347
2023-03-22T11:55:17.258Z,30.348
2023-03-22T12:00:17.226Z,30.349
2023-03-22T12:05:17.204Z,30.348
2023-03-22T12:10:17.186Z,30.348
2023-03-22T12:15:17.284Z,30.349
2023-03-22T12:20:17.205Z,30.348
2023-03-22T12:25:17.740Z,30.349
2023-03-22T12:30:17.576Z,30.348
2023-03-22T12:35:18.240Z,30.348
2023-03-22T12:40:17.112Z,30.349
2023-03-22T12:45:17.302Z,30.345
2023-03-22T12:50:17.289Z,30.348
2023-03-22T12:55:17.255Z,30.349
2023-03-22T13:00:17.549Z,30.347
2023-03-22T13:05:17.605Z,30.349
2023-03-22T13:10:17.388Z,30.350
2023-03-22T13:15:17.844Z,30.353
2023-03-22T13:20:17.355Z,30.351
2023-03-22T13:25:17.482Z,30.350
2023-03-22T13:30:17.385Z,30.354
2023-03-22T13:35:17.686Z,30.356
2023-03-22T13:40:17.536Z,30.358
2023-03-22T13:45:17.471Z,30.356
2023-03-22T13:50:20.555Z,30.357
2023-03-22T13:55:18.734Z,30.354
2023-03-22T14:00:19.820Z,30.356
2023-03-22T14:05:17.515Z,30.353
2023-03-22T14:10:17.682Z,30.353
2023-03-22T14:15:17.853Z,30.354
2023-03-22T14:20:17.517Z,30.355
2023-03-22T14:55:17.690Z,30.348
2023-03-22T15:00:17.626Z,30.350
2023-03-22T15:05:17.638Z,30.350
2023-03-22T15:10:17.628Z,30.349
2023-03-22T15:15:17.783Z,30.346
2023-03-22T15:20:17.841Z,30.342
2023-03-22T15:25:17.873Z,30.341
2023-03-22T15:30:17.617Z,30.342
2023-03-22T15:35:17.708Z,30.341
2023-03-22T15:40:17.790Z,30.339
2023-03-22T15:45:18.010Z,30.340
2023-03-22T15:50:17.736Z,30.338
2023-03-22T15:55:17.874Z,30.338
2023-03-22T16:00:17.989Z,30.337
2023-03-22T16:05:17.816Z,30.339
2023-03-22T16:10:17.888Z,30.336
2023-03-22T16:15:17.822Z,30.336
2023-03-22T16:20:17.693Z,30.336
2023-03-22T16:25:17.850Z,30.337
2023-03-22T16:30:18.309Z,30.337
2023-03-22T16:35:17.933Z,30.335
2023-03-22T16:40:18.011Z,30.330
2023-03-22T16:45:18.106Z,30.329
2023-03-22T16:50:17.804Z,30.329
2023-03-22T16:55:17.894Z,30.330
2023-03-22T17:00:18.163Z,30.327
2023-03-22T17:05:18.094Z,30.327
2023-03-22T17:10:17.955Z,30.322
2023-03-22T17:15:18.065Z,30.318
2023-03-22T17:20:17.961Z,30.314
2023-03-22T17:25:18.080Z,30.311
2023-03-22T17:30:18.015Z,30.308
2023-03-22T17:35:18.071Z,30.306
2023-03-22T17:40:32.576Z,30.304
2023-03-22T17:45:18.146Z,30.301
2023-03-22T17:50:17.990Z,30.298
2023-03-22T17:55:23.727Z,30.296
2023-03-22T18:00:18.748Z,30.292
2023-03-22T18:05:24.645Z,30.292
2023-03-22T18:10:18.039Z,30.288
2023-03-22T18:15:18.595Z,30.284
2023-03-22T18:20:29.492Z,30.277
2023-03-22T18:25:18.138Z,30.271
2023-03-22T18:30:18.051Z,30.272
2023-03-22T18:35:18.103Z,30.270
2023-03-22T18:40:58.548Z,30.270
2023-03-22T18:45:18.657Z,30.267
2023-03-22T18:50:18.380Z,30.266
2023-03-22T18:55:29.643Z,30.264
2023-03-22T19:00:18.278Z,30.257
2023-03-22T19:05:18.312Z,30.256
2023-03-22T19:10:18.255Z,30.252
2023-03-22T19:15:44.906Z,30.248
2023-03-22T19:20:16.482Z,30.245
2023-03-22T19:25:16.353Z,30.245
2023-03-22T19:30:16.757Z,30.243
2023-03-22T19:35:16.504Z,30.244
2023-03-22T19:41:27.703Z,30.244
2023-03-22T19:45:16.625Z,30.240
2023-03-22T19:50:16.461Z,30.239
2023-03-22T19:55:16.336Z,30.237
2023-03-22T20:00:44.302Z,30.235
2023-03-22T20:05:17.968Z,30.231
2023-03-22T20:10:16.342Z,30.231
2023-03-22T20:15:16.517Z,30.230
2023-03-22T20:20:16.415Z,30.227
2023-03-22T20:25:16.459Z,30.228
2023-03-22T20:30:16.475Z,30.227
2023-03-22T20:35:16.623Z,30.225
2023-03-22T20:40:16.665Z,30.224
2023-03-22T20:45:16.701Z,30.223
2023-03-22T20:50:16.474Z,30.222
2023-03-22T20:55:16.765Z,30.219
2023-03-22T21:00:16.499Z,30.215
2023-03-22T21:05:16.622Z,30.216
2023-03-22T21:10:16.552Z,30.216
2023-03-22T21:15:16.562Z,30.214
2023-03-22T21:20:27.097Z,30.213
2023-03-22T21:25:16.623Z,30.213
2023-03-22T21:30:16.851Z,30.214
2023-03-22T21:35:16.518Z,30.213
2023-03-22T21:40:16.597Z,30.210
2023-03-22T21:45:16.859Z,30.207
2023-03-22T21:50:16.781Z,30.204
2023-03-22T21:55:16.682Z,30.200
2023-03-22T22:00:16.974Z,30.201
2023-03-22T22:05:16.687Z,30.200
2023-03-22T22:10:16.637Z,30.198
2023-03-22T22:15:16.998Z,30.195
2023-03-22T22:20:16.809Z,30.192
2023-03-22T22:25:16.911Z,30.192
2023-03-22T22:30:16.853Z,30.190
2023-03-22T22:35:17.038Z,30.189
2023-03-22T22:40:16.918Z,30.186
2023-03-22T22:45:16.936Z,30.181
2023-03-22T22:50:16.892Z,30.181
2023-03-22T22:55:17.335Z,30.184
2023-03-22T23:00:17.193Z,30.185
2023-03-22T23:05:17.015Z,30.180
2023-03-22T23:10:17.006Z,30.175
2023-03-22T23:15:27.088Z,30.171
2023-03-22T23:20:16.797Z,30.168
2023-03-22T23:25:16.875Z,30.165
2023-03-22T23:30:17.151Z,30.163
2023-03-22T23:35:16.967Z,30.161
2023-03-22T23:40:16.915Z,30.161
2023-03-22T23:45:17.122Z,30.158
2023-03-22T23:50:16.876Z,30.158
2023-03-22T23:55:16.997Z,30.157
